createdAt,value
2023-05-25T00:03:35.275Z,101121.52
2023-05-25T00:06:04.124Z,101118.09
2023-05-25T00:08:32.376Z,101114.51
2023-05-25T00:11:00.992Z,101113.24
2023-05-25T00:13:29.252Z,101109.85
2023-05-25T00:15:58.282Z,101112.69
2023-05-25T00:18:26.501Z,101109.83
2023-05-25T00:20:54.790Z,101107.66
2023-05-25T00:23:23.066Z,101106.06
2023-05-25T00:25:51.195Z,101109.61
2023-05-25T00:28:19.325Z,101107.64
2023-05-25T00:30:48.016Z,101101.02
2023-05-25T00:33:17.038Z,101102.63
2023-05-25T00:35:45.673Z,101098.69
2023-05-25T00:38:15.081Z,101096.38
2023-05-25T00:40:43.630Z,101096.73
2023-05-25T00:43:13.225Z,101098.88
2023-05-25T00:45:42.838Z,101096.54
2023-05-25T00:48:13.182Z,101096.89
2023-05-25T00:50:43.477Z,101097.06
2023-05-25T00:53:13.929Z,101095.63
2023-05-25T00:55:49.849Z,101094.37
2023-05-25T00:58:22.080Z,101089.58
2023-05-25T01:00:52.373Z,101091.17
2023-05-25T01:03:24.252Z,101089.56
2023-05-25T01:05:55.455Z,101088.13
2023-05-25T01:08:25.685Z,101089.75
2023-05-25T01:10:57.399Z,101085.10
2023-05-25T01:13:26.836Z,101085.81
2023-05-25T01:15:56.289Z,101089.73
2023-05-25T01:18:24.480Z,101087.60
2023-05-25T01:21:15.010Z,101084.02
2023-05-25T01:24:05.890Z,101084.55
2023-05-25T01:26:42.877Z,101084.71
2023-05-25T01:29:11.921Z,101082.05
2023-05-25T01:31:41.575Z,101079.18
2023-05-25T01:34:11.378Z,101074.00
2023-05-25T01:36:39.499Z,101078.81
2023-05-25T01:39:09.777Z,101082.02
2023-05-25T01:41:37.895Z,101077.17
2023-05-25T01:44:06.833Z,101077.70
2023-05-25T01:46:41.010Z,101077.70
2023-05-25T01:49:53.894Z,101081.61
2023-05-25T01:52:27.325Z,101082.85
2023-05-25T01:55:03.240Z,101080.17
2023-05-25T01:57:36.168Z,101083.18
2023-05-25T02:00:05.715Z,101082.98
2023-05-25T02:02:34.801Z,101084.23
2023-05-25T02:05:04.419Z,101076.58
2023-05-25T02:07:34.000Z,101076.20
2023-05-25T02:10:02.848Z,101072.10
2023-05-25T02:12:31.201Z,101070.13
2023-05-25T02:14:59.344Z,101066.01
2023-05-25T02:17:27.553Z,101064.92
2023-05-25T02:19:56.278Z,101060.98
2023-05-25T02:22:24.543Z,101061.35
2023-05-25T02:24:52.901Z,101056.16
2023-05-25T02:27:21.414Z,101057.40
2023-05-25T02:29:51.467Z,101059.16
2023-05-25T02:32:20.232Z,101058.81
2023-05-25T02:34:49.167Z,101059.86
2023-05-25T02:37:17.499Z,101061.09
2023-05-25T02:39:45.792Z,101056.09
2023-05-25T02:42:14.207Z,101055.19
2023-05-25T02:44:42.732Z,101049.48
2023-05-25T02:47:11.485Z,101050.02
2023-05-25T02:49:40.593Z,101051.42
2023-05-25T02:52:09.216Z,101053.20
2023-05-25T02:54:37.289Z,101045.34
2023-05-25T02:57:06.341Z,101048.34
2023-05-25T02:59:34.511Z,101047.62
2023-05-25T03:02:04.455Z,101049.21
2023-05-25T03:04:33.749Z,101044.02
2023-05-25T03:07:02.473Z,101044.34
2023-05-25T03:09:31.787Z,101040.59
2023-05-25T03:12:00.620Z,101040.77
2023-05-25T03:14:28.964Z,101041.63
2023-05-25T03:16:57.763Z,101041.61
2023-05-25T03:19:26.281Z,101041.20
2023-05-25T03:21:54.433Z,101045.45
2023-05-25T03:24:22.616Z,101040.98
2023-05-25T03:26:50.813Z,101036.14
2023-05-25T03:29:18.919Z,101033.28
2023-05-25T03:31:47.026Z,101029.53
2023-05-25T03:34:15.503Z,101027.02
2023-05-25T03:36:43.583Z,101024.69
2023-05-25T03:39:12.159Z,101026.64
2023-05-25T03:41:40.442Z,101024.15
2023-05-25T03:44:08.673Z,101022.73
2023-05-25T03:46:36.887Z,101023.77
2023-05-25T03:49:05.492Z,101019.50
2023-05-25T03:51:34.282Z,101018.23
2023-05-25T03:54:02.675Z,101021.27
2023-05-25T03:56:30.932Z,101021.80
2023-05-25T03:58:59.236Z,101023.21
2023-05-25T04:01:27.455Z,101019.98
2023-05-25T04:03:56.807Z,101022.98
2023-05-25T04:06:25.569Z,101027.80
2023-05-25T04:08:54.088Z,101027.27
2023-05-25T04:11:22.536Z,101025.64
2023-05-25T04:13:50.712Z,101028.48
2023-05-25T04:16:19.396Z,101029.00
2023-05-25T04:18:48.570Z,101028.61
2023-05-25T04:21:16.616Z,101028.60
2023-05-25T04:23:44.818Z,101026.44
2023-05-25T04:26:13.333Z,101032.31
2023-05-25T04:28:41.515Z,101032.13
2023-05-25T04:31:09.840Z,101032.64
2023-05-25T04:33:38.352Z,101034.75
2023-05-25T04:36:07.431Z,101040.79
2023-05-25T04:38:36.577Z,101040.41
2023-05-25T04:41:05.922Z,101043.42
2023-05-25T04:43:34.116Z,101044.67
2023-05-25T04:46:02.301Z,101046.08
2023-05-25T04:48:30.607Z,101044.84
2023-05-25T04:50:58.655Z,101049.09
2023-05-25T04:53:26.893Z,101053.17
2023-05-25T04:55:55.004Z,101056.92
2023-05-25T04:58:23.289Z,101059.60
2023-05-25T05:00:52.733Z,101062.26
2023-05-25T05:03:21.092Z,101063.52
2023-05-25T05:05:49.826Z,101063.37
2023-05-25T05:08:18.527Z,101065.88
2023-05-25T05:10:46.771Z,101068.05
2023-05-25T05:13:16.192Z,101066.28
2023-05-25T05:15:44.655Z,101069.68
2023-05-25T05:18:13.705Z,101072.58
2023-05-25T05:20:42.074Z,101076.52
2023-05-25T05:23:10.414Z,101075.46
2023-05-25T05:25:39.063Z,101069.80
2023-05-25T05:28:07.222Z,101071.08
2023-05-25T05:30:35.367Z,101072.91
2023-05-25T05:33:03.733Z,101075.09
2023-05-25T05:35:32.468Z,101075.14
2023-05-25T05:38:00.778Z,101080.33
2023-05-25T05:40:28.984Z,101082.88
2023-05-25T05:42:57.103Z,101083.96
2023-05-25T05:45:25.204Z,101082.04
2023-05-25T05:47:53.628Z,101083.52
2023-05-25T05:50:22.627Z,101081.60
2023-05-25T05:52:51.056Z,101088.79
2023-05-25T05:55:19.808Z,101089.04
2023-05-25T05:57:47.927Z,101088.80
2023-05-25T06:00:16.729Z,101088.85
2023-05-25T06:02:45.424Z,101084.29
2023-05-25T06:05:14.459Z,101087.39
2023-05-25T06:07:43.245Z,101088.54
2023-05-25T06:10:12.047Z,101089.84
2023-05-25T06:12:40.176Z,101090.61
2023-05-25T06:15:09.221Z,101091.73
2023-05-25T06:17:37.519Z,101086.81
2023-05-25T06:20:06.884Z,101086.48
2023-05-25T06:22:35.983Z,101086.84
2023-05-25T06:25:04.773Z,101092.56
2023-05-25T06:27:33.048Z,101096.14
2023-05-25T06:30:01.227Z,101098.57
2023-05-25T06:32:29.680Z,101101.44
2023-05-25T06:34:58.344Z,101100.77
2023-05-25T06:37:28.042Z,101097.52
2023-05-25T06:39:57.668Z,101099.98
2023-05-25T06:42:26.082Z,101102.98
2023-05-25T06:44:55.145Z,101103.83
2023-05-25T06:47:23.734Z,101107.63
2023-05-25T06:49:53.108Z,101107.23
2023-05-25T06:52:21.356Z,101111.39
2023-05-25T06:54:50.368Z,101117.54
2023-05-25T06:57:18.617Z,101111.55
2023-05-25T06:59:47.602Z,101115.77
2023-05-25T07:02:16.488Z,101120.43
2023-05-25T07:04:46.253Z,101119.67
2023-05-25T07:07:15.682Z,101131.52
2023-05-25T07:09:45.013Z,101129.74
2023-05-25T07:12:14.067Z,101130.73
2023-05-25T07:14:43.596Z,101128.48
2023-05-25T07:17:11.788Z,101124.14
2023-05-25T07:19:40.388Z,101132.08
2023-05-25T07:22:08.629Z,101130.90
2023-05-25T07:24:37.243Z,101136.40
2023-05-25T07:27:06.204Z,101136.52
2023-05-25T07:29:34.299Z,101136.48
2023-05-25T07:32:03.033Z,101140.64
2023-05-25T07:34:31.628Z,101141.16
2023-05-25T07:36:59.970Z,101141.84
2023-05-25T07:39:29.612Z,101143.72
2023-05-25T07:41:58.068Z,101148.50
2023-05-25T07:44:26.718Z,101148.98
2023-05-25T07:46:55.431Z,101149.86
2023-05-25T07:49:23.897Z,101152.20
2023-05-25T07:51:52.416Z,101154.02
2023-05-25T07:54:21.012Z,101158.98
2023-05-25T07:56:49.795Z,101162.61
2023-05-25T07:59:18.349Z,101166.45
2023-05-25T08:01:47.917Z,101168.84
2023-05-25T08:04:16.247Z,101169.76
2023-05-25T08:06:44.813Z,101170.48
2023-05-25T08:09:13.570Z,101168.20
2023-05-25T08:11:42.594Z,101171.06
2023-05-25T08:14:11.600Z,101170.83
2023-05-25T08:16:40.098Z,101170.50
2023-05-25T08:19:09.475Z,101168.48
2023-05-25T08:21:37.770Z,101168.50
2023-05-25T08:24:07.429Z,101174.61
2023-05-25T08:26:53.158Z,101176.47
2023-05-25T08:29:22.376Z,101178.88
2023-05-25T08:31:51.793Z,101182.94
2023-05-25T08:34:20.690Z,101178.70
2023-05-25T08:36:49.124Z,101177.71
2023-05-25T08:39:17.200Z,101176.70
2023-05-25T08:41:46.246Z,101175.59
2023-05-25T08:44:14.831Z,101175.70
2023-05-25T08:46:43.374Z,101175.42
2023-05-25T08:49:13.767Z,101173.44
2023-05-25T08:51:53.277Z,101173.11
2023-05-25T08:54:43.989Z,101176.95
2023-05-25T08:57:48.041Z,101174.60
2023-05-25T09:00:17.481Z,101178.55
2023-05-25T09:02:54.737Z,101181.69
2023-05-25T09:05:24.343Z,101179.11
2023-05-25T09:07:58.500Z,101181.29
2023-05-25T09:10:28.617Z,101178.04
2023-05-25T09:12:57.912Z,101178.99
2023-05-25T09:15:26.323Z,101181.02
2023-05-25T09:17:55.603Z,101184.13
2023-05-25T09:20:25.433Z,101182.68
2023-05-25T09:22:55.090Z,101181.39
2023-05-25T09:25:23.997Z,101184.92
2023-05-25T09:27:52.317Z,101185.70
2023-05-25T09:30:20.660Z,101187.08
2023-05-25T09:32:49.443Z,101184.02
2023-05-25T09:35:17.919Z,101182.14
2023-05-25T09:37:47.141Z,101185.36
2023-05-25T09:40:17.531Z,101182.98
2023-05-25T09:42:46.854Z,101181.52
2023-05-25T09:45:15.122Z,101185.29
2023-05-25T09:47:43.826Z,101184.45
2023-05-25T09:50:12.985Z,101187.11
2023-05-25T09:52:41.889Z,101184.69
2023-05-25T09:55:10.092Z,101189.19
2023-05-25T09:57:38.982Z,101184.46
2023-05-25T10:00:09.326Z,101184.98
2023-05-25T10:02:39.184Z,101181.61
2023-05-25T10:05:08.088Z,101178.48
2023-05-25T10:07:40.075Z,101179.40
2023-05-25T10:10:10.457Z,101185.59
2023-05-25T10:12:41.746Z,101178.36
2023-05-25T10:15:12.588Z,101178.81
2023-05-25T10:17:48.009Z,101176.17
2023-05-25T10:20:17.155Z,101176.19
2023-05-25T10:22:57.251Z,101170.91
2023-05-25T10:25:29.333Z,101174.05
2023-05-25T10:28:07.746Z,101168.65
2023-05-25T10:30:36.971Z,101168.25
2023-05-25T10:33:06.069Z,101165.81
2023-05-25T10:35:46.745Z,101164.98
2023-05-25T10:38:26.265Z,101162.23
2023-05-25T10:40:56.336Z,101164.41
2023-05-25T10:43:26.515Z,101165.22
2023-05-25T10:45:56.917Z,101159.85
2023-05-25T10:48:39.526Z,101162.09
2023-05-25T10:51:10.090Z,101159.27
2023-05-25T10:53:44.570Z,101160.04
2023-05-25T10:56:13.631Z,101155.40
2023-05-25T10:58:43.353Z,101153.29
2023-05-25T11:01:14.164Z,101154.30
2023-05-25T11:03:55.158Z,101153.25
2023-05-25T11:07:02.068Z,101150.94
2023-05-25T11:09:31.273Z,101152.21
2023-05-25T11:11:59.446Z,101148.50
2023-05-25T11:14:27.973Z,101149.77
2023-05-25T11:17:15.859Z,101141.21
2023-05-25T11:19:55.543Z,101143.72
2023-05-25T11:22:35.198Z,101139.02
2023-05-25T11:25:24.811Z,101139.02
2023-05-25T11:27:53.395Z,101134.45
2023-05-25T11:30:28.511Z,101134.69
2023-05-25T11:32:57.145Z,101130.42
2023-05-25T11:35:26.062Z,101134.96
2023-05-25T11:37:54.671Z,101134.44
2023-05-25T11:40:23.899Z,101130.26
2023-05-25T11:42:53.848Z,101131.77
2023-05-25T11:45:22.916Z,101132.77
2023-05-25T11:47:51.146Z,101127.88
2023-05-25T11:50:19.601Z,101127.08
2023-05-25T11:52:48.195Z,101127.21
2023-05-25T11:55:16.464Z,101126.71
2023-05-25T11:57:44.728Z,101124.45
2023-05-25T12:00:13.564Z,101126.36
2023-05-25T12:02:42.001Z,101122.84
2023-05-25T12:05:11.322Z,101123.66
2023-05-25T12:07:44.614Z,101121.70
2023-05-25T12:10:14.986Z,101115.77
2023-05-25T12:12:51.929Z,101109.67
2023-05-25T12:15:24.595Z,101106.26
2023-05-25T12:17:54.480Z,101103.54
2023-05-25T12:20:24.361Z,101099.84
2023-05-25T12:22:53.167Z,101092.96
2023-05-25T12:25:21.959Z,101099.95
2023-05-25T12:28:10.644Z,101097.38
2023-05-25T12:30:39.236Z,101094.27
2023-05-25T12:33:13.395Z,101089.27
2023-05-25T12:35:50.553Z,101081.98
2023-05-25T12:38:20.928Z,101079.69
2023-05-25T12:41:05.959Z,101083.16
2023-05-25T12:43:41.185Z,101073.20
2023-05-25T12:46:09.386Z,101075.17
2023-05-25T12:48:37.737Z,101073.27
2023-05-25T12:51:05.948Z,101077.23
2023-05-25T12:53:52.709Z,101079.88
2023-05-25T12:56:20.825Z,101077.83
2023-05-25T12:58:48.949Z,101081.85
2023-05-25T13:01:17.245Z,101081.68
2023-05-25T13:03:45.550Z,101082.64
2023-05-25T13:06:14.046Z,101080.48
2023-05-25T13:08:42.393Z,101084.30
2023-05-25T13:11:10.803Z,101095.04
2023-05-25T13:13:38.890Z,101095.30
2023-05-25T13:16:08.830Z,101096.05
2023-05-25T13:18:37.045Z,101092.45
2023-05-25T13:21:05.815Z,101093.54
2023-05-25T13:23:34.112Z,101090.98
2023-05-25T13:26:02.331Z,101085.48
2023-05-25T13:28:31.570Z,101079.86
2023-05-25T13:30:59.857Z,101082.13
2023-05-25T13:33:28.051Z,101079.44
2023-05-25T13:35:56.386Z,101072.92
2023-05-25T13:38:27.630Z,101071.26
2023-05-25T13:40:55.981Z,101072.92
2023-05-25T13:43:24.256Z,101071.41
2023-05-25T13:45:52.538Z,101071.92
2023-05-25T13:48:21.418Z,101076.42
2023-05-25T13:50:49.986Z,101079.68
2023-05-25T13:53:18.679Z,101089.44
2023-05-25T13:55:46.828Z,101093.73
2023-05-25T13:58:15.496Z,101100.14
2023-05-25T14:00:44.615Z,101094.20
2023-05-25T14:03:13.278Z,101083.02
2023-05-25T14:05:41.531Z,101080.04
2023-05-25T14:08:10.157Z,101078.27
2023-05-25T14:10:38.720Z,101073.45
2023-05-25T14:13:06.835Z,101073.20
2023-05-25T14:15:35.192Z,101077.23
2023-05-25T14:18:03.932Z,101070.27
2023-05-25T14:20:32.901Z,101074.48
2023-05-25T14:23:01.770Z,101079.98
2023-05-25T14:25:30.174Z,101081.83
2023-05-25T14:27:58.460Z,101078.98
2023-05-25T14:30:26.640Z,101073.48
2023-05-25T14:32:54.834Z,101069.29
2023-05-25T14:35:23.206Z,101064.85
2023-05-25T14:37:51.462Z,101064.35
2023-05-25T14:40:19.645Z,101065.31
2023-05-25T14:42:50.997Z,101073.10
2023-05-25T14:45:19.301Z,101073.44
2023-05-25T14:47:47.939Z,101074.81
2023-05-25T14:50:16.554Z,101066.70
2023-05-25T14:52:45.454Z,101062.30
2023-05-25T14:55:13.981Z,101058.99
2023-05-25T14:57:42.689Z,101065.77
2023-05-25T15:00:11.904Z,101063.88
2023-05-25T15:02:40.110Z,101068.95
2023-05-25T15:05:09.151Z,101073.08
2023-05-25T15:07:41.274Z,101073.10
2023-05-25T15:10:09.876Z,101070.61
2023-05-25T15:12:38.071Z,101073.44
2023-05-25T15:15:06.565Z,101074.58
2023-05-25T15:17:34.868Z,101077.39
2023-05-25T15:20:04.199Z,101085.10
2023-05-25T15:22:33.042Z,101086.94
2023-05-25T15:25:02.582Z,101088.97
2023-05-25T15:27:31.118Z,101084.45
2023-05-25T15:29:59.785Z,101077.94
2023-05-25T15:32:28.769Z,101070.86
2023-05-25T15:34:57.633Z,101069.01
2023-05-25T15:37:30.803Z,101076.27
2023-05-25T15:39:58.959Z,101079.19
2023-05-25T15:42:27.389Z,101081.64
2023-05-25T15:44:55.544Z,101085.66
2023-05-25T15:47:24.190Z,101089.02
2023-05-25T15:49:52.497Z,101097.19
2023-05-25T15:52:21.918Z,101097.09
2023-05-25T15:54:50.442Z,101097.34
2023-05-25T15:57:18.871Z,101099.59
2023-05-25T15:59:47.885Z,101101.06
2023-05-25T16:02:16.855Z,101105.57
2023-05-25T16:04:45.089Z,101105.45
2023-05-25T16:07:13.948Z,101113.10
2023-05-25T16:09:42.102Z,101123.06
2023-05-25T16:12:10.664Z,101127.44
2023-05-25T16:14:39.209Z,101133.24
2023-05-25T16:17:08.070Z,101140.84
2023-05-25T16:19:36.265Z,101144.89
2023-05-25T16:22:04.676Z,101146.36
2023-05-25T16:24:32.761Z,101148.19
2023-05-25T16:27:00.822Z,101144.63
2023-05-25T16:29:31.245Z,101147.02
2023-05-25T16:31:59.428Z,101150.30
2023-05-25T16:34:27.812Z,101155.21
2023-05-25T16:36:56.047Z,101163.73
2023-05-25T16:39:25.250Z,101172.98
2023-05-25T16:41:53.486Z,101178.85
2023-05-25T16:44:21.919Z,101178.86
2023-05-25T16:46:49.974Z,101181.93
2023-05-25T16:49:19.808Z,101175.45
2023-05-25T16:51:48.376Z,101171.02
2023-05-25T16:54:17.150Z,101165.69
2023-05-25T16:56:45.772Z,101159.79
2023-05-25T16:59:14.862Z,101161.77
2023-05-25T17:01:44.461Z,101162.30
2023-05-25T17:04:13.341Z,101163.39
2023-05-25T17:06:42.217Z,101167.70
2023-05-25T17:09:11.039Z,101165.58
2023-05-25T17:11:39.933Z,101167.54
2023-05-25T17:14:08.142Z,101171.67
2023-05-25T17:16:36.489Z,101167.56
2023-05-25T17:19:05.487Z,101159.55
2023-05-25T17:21:35.625Z,101160.45
2023-05-25T17:24:04.656Z,101158.29
2023-05-25T17:26:34.027Z,101165.43
2023-05-25T17:29:02.960Z,101162.73
2023-05-25T17:31:31.794Z,101166.85
2023-05-25T17:34:00.439Z,101162.74
2023-05-25T17:36:28.907Z,101164.89
2023-05-25T17:38:57.430Z,101158.10
2023-05-25T17:41:26.249Z,101154.31
2023-05-25T17:43:54.721Z,101150.94
2023-05-25T17:46:23.475Z,101147.37
2023-05-25T17:48:52.216Z,101146.85
2023-05-25T17:51:21.832Z,101145.79
2023-05-25T17:53:49.984Z,101143.48
2023-05-25T17:56:19.941Z,101142.98
2023-05-25T17:58:49.115Z,101141.19
2023-05-25T18:01:17.511Z,101141.36
2023-05-25T18:03:46.514Z,101144.05
2023-05-25T18:06:15.332Z,101141.53
2023-05-25T18:08:43.987Z,101136.52
2023-05-25T18:11:12.128Z,101130.79
2023-05-25T18:13:42.140Z,101124.90
2023-05-25T18:16:11.801Z,101119.17
2023-05-25T18:18:41.413Z,101113.64
2023-05-25T18:21:10.535Z,101107.38
2023-05-25T18:23:39.059Z,101102.56
2023-05-25T18:26:07.219Z,101099.71
2023-05-25T18:28:35.335Z,101095.95
2023-05-25T18:31:03.449Z,101097.73
2023-05-25T18:33:31.643Z,101098.11
2023-05-25T18:35:59.896Z,101102.57
2023-05-25T18:38:28.515Z,101103.83
2023-05-25T18:40:56.888Z,101107.02
2023-05-25T18:43:25.996Z,101111.31
2023-05-25T18:45:54.129Z,101114.55
2023-05-25T18:48:22.291Z,101118.13
2023-05-25T18:50:51.203Z,101118.84
2023-05-25T18:53:19.741Z,101120.09
2023-05-25T18:55:47.997Z,101120.97
2023-05-25T18:58:17.326Z,101123.13
2023-05-25T19:00:48.482Z,101127.05
2023-05-25T19:03:16.733Z,101130.27
2023-05-25T19:05:46.526Z,101128.66
2023-05-25T19:08:15.767Z,101129.53
2023-05-25T19:10:43.962Z,101128.63
2023-05-25T19:13:12.571Z,101132.57
2023-05-25T19:15:41.615Z,101138.66
2023-05-25T19:18:10.833Z,101139.73
2023-05-25T19:20:39.177Z,101135.80
2023-05-25T19:23:07.998Z,101138.66
2023-05-25T19:25:36.334Z,101141.89
2023-05-25T19:28:06.336Z,101144.39
2023-05-25T19:30:35.085Z,101147.42
2023-05-25T19:33:03.982Z,101148.14
2023-05-25T19:35:32.536Z,101141.52
2023-05-25T19:38:02.066Z,101143.65
2023-05-25T19:40:33.711Z,101145.61
2023-05-25T19:43:02.051Z,101151.17
2023-05-25T19:45:30.330Z,101149.92
2023-05-25T19:47:58.843Z,101145.09
2023-05-25T19:50:26.976Z,101146.70
2023-05-25T19:52:56.615Z,101151.89
2023-05-25T19:55:25.638Z,101158.51
2023-05-25T19:57:53.873Z,101162.98
2023-05-25T20:00:26.795Z,101159.92
2023-05-25T20:02:56.018Z,101157.98
2023-05-25T20:05:25.475Z,101159.42
2023-05-25T20:07:53.969Z,101160.11
2023-05-25T20:10:22.641Z,101159.57
2023-05-25T20:12:50.835Z,101157.79
2023-05-25T20:15:19.837Z,101157.61
2023-05-25T20:17:48.506Z,101164.59
2023-05-25T20:20:16.924Z,101167.45
2023-05-25T20:22:45.888Z,101167.96
2023-05-25T20:25:14.468Z,101168.66
2023-05-25T20:27:42.779Z,101171.55
2023-05-25T20:30:12.022Z,101173.85
2023-05-25T20:32:41.706Z,101185.11
2023-05-25T20:35:10.248Z,101197.09
2023-05-25T20:37:38.304Z,101202.27
2023-05-25T20:40:07.180Z,101205.84
2023-05-25T20:42:35.667Z,101202.09
2023-05-25T20:45:05.393Z,101201.58
2023-05-25T20:47:33.716Z,101202.14
2023-05-25T20:50:02.657Z,101204.27
2023-05-25T20:52:30.825Z,101205.84
2023-05-25T20:54:59.072Z,101206.73
2023-05-25T20:57:27.176Z,101206.90
2023-05-25T20:59:55.429Z,101207.80
2023-05-25T21:02:23.639Z,101209.05
2023-05-25T21:04:52.652Z,101215.30
2023-05-25T21:07:20.678Z,101222.27
2023-05-25T21:09:49.844Z,101221.91
2023-05-25T21:12:18.828Z,101226.74
2023-05-25T21:14:49.173Z,101225.67
2023-05-25T21:17:18.836Z,101235.13
2023-05-25T21:19:47.706Z,101237.29
2023-05-25T21:22:16.004Z,101239.96
2023-05-25T21:24:45.394Z,101238.70
2023-05-25T21:27:14.338Z,101240.30
2023-05-25T21:29:42.877Z,101245.14
2023-05-25T21:32:11.260Z,101243.52
2023-05-25T21:34:39.404Z,101247.45
2023-05-25T21:37:07.547Z,101243.88
2023-05-25T21:39:36.355Z,101241.73
2023-05-25T21:42:05.788Z,101236.73
2023-05-25T21:44:35.009Z,101234.94
2023-05-25T21:47:04.224Z,101228.51
2023-05-25T21:49:34.050Z,101233.52
2023-05-25T21:52:02.730Z,101235.48
2023-05-25T21:54:31.531Z,101233.69
2023-05-25T21:57:01.582Z,101232.96
2023-05-25T21:59:29.744Z,101237.78
2023-05-25T22:01:58.527Z,101241.36
2023-05-25T22:04:26.762Z,101239.55
2023-05-25T22:06:56.259Z,101236.52
2023-05-25T22:09:25.515Z,101238.64
2023-05-25T22:11:53.756Z,101237.36
2023-05-25T22:14:23.522Z,101234.14
2023-05-25T22:16:52.160Z,101239.50
2023-05-25T22:19:20.403Z,101238.60
2023-05-25T22:21:50.259Z,101241.25
2023-05-25T22:24:19.114Z,101240.73
2023-05-25T22:26:47.237Z,101238.21
2023-05-25T22:29:16.480Z,101240.36
2023-05-25T22:31:44.792Z,101239.46
2023-05-25T22:34:14.197Z,101238.92
2023-05-25T22:36:43.518Z,101241.24
2023-05-25T22:39:11.803Z,101249.67
2023-05-25T22:41:43.783Z,101248.41
2023-05-25T22:44:12.829Z,101246.79
2023-05-25T22:46:41.266Z,101249.13
2023-05-25T22:49:10.448Z,101246.64
2023-05-25T22:51:40.865Z,101245.04
2023-05-25T22:54:10.550Z,101242.00
2023-05-25T22:56:39.968Z,101235.41
2023-05-25T22:59:12.622Z,101234.50
2023-05-25T23:01:41.119Z,101231.13
2023-05-25T23:04:10.697Z,101232.56
2023-05-25T23:06:40.854Z,101232.20
2023-05-25T23:09:13.283Z,101229.02
2023-05-25T23:11:44.145Z,101225.26
2023-05-25T23:14:15.189Z,101226.14
2023-05-25T23:16:43.495Z,101222.39
2023-05-25T23:19:12.995Z,101225.27
2023-05-25T23:21:41.595Z,101225.44
2023-05-25T23:24:10.409Z,101228.83
2023-05-25T23:26:42.320Z,101240.98
2023-05-25T23:29:11.785Z,101243.99
2023-05-25T23:31:40.698Z,101243.30
2023-05-25T23:34:12.558Z,101238.46
2023-05-25T23:36:42.113Z,101237.56
2023-05-25T23:39:11.334Z,101230.41
2023-05-25T23:41:41.876Z,101228.61
2023-05-25T23:44:10.919Z,101225.92
2023-05-25T23:46:39.304Z,101223.26
2023-05-25T23:49:08.295Z,101221.10
2023-05-25T23:51:37.945Z,101221.44
2023-05-25T23:54:06.621Z,101218.92
2023-05-25T23:56:34.790Z,101212.14
2023-05-25T23:59:03.998Z,101208.21
